Main page
Satellite images 15-day forecastsClimateMarine weather Cyclones Lightning AirportsFAQ Newsletter About
Weather : Europe Africa North America South America Asia Australia-Oceania Others
Languages Contact

Baia Mare, Romania

latitude: 47-40N, longitude: 023-35E, elevation: 218 m


METAR: LRBM 251200Z 15004KT 090V220 CAVOK 12/04 Q1025
TAF: LRBM 251100Z 2512/2521 VRB04KT CAVOK

Time: 15:39 (12:39 UTC)

Current weather observation

The report was made 39 minutes ago, at 12:00 UTC
Wind 4 kt from the South/Southeast, varying between East and Southwest
Temperature 12°C
Humidity 58%
Pressure 1025 hPa
Visibility 10 km or more
no clouds below 1500 m and no cumulonimbus

Change units

Forecast

The report was made 1 hour and 39 minutes ago, at 11:00 UTC
Forecast valid from 25 at 12 UTC to 25 at 21 UTC
Wind 4 kt from variable directions
Visibility 10 km or more
no clouds below 1500 m and no cumulonimbus
The information on this site is subject to a disclaimer
Weather : Europe Africa North America South America Asia Australia-Oceania Others
Satellite images 15-day forecastsClimateMarine weather Cyclones Lightning AirportsFAQ Languages Contact Newsletter About